createdAt,value
2022-08-09T00:01:57.577Z,100.00
2022-08-09T00:04:34.773Z,100.00
2022-08-09T00:07:10.597Z,100.00
2022-08-09T00:09:41.089Z,100.00
2022-08-09T00:12:22.854Z,100.00
2022-08-09T00:14:54.559Z,100.00
2022-08-09T00:18:09.289Z,100.00
2022-08-09T00:20:16.741Z,100.00
2022-08-09T00:22:47.381Z,100.00
2022-08-09T00:25:23.589Z,100.00
2022-08-09T00:28:04.035Z,100.00
2022-08-09T00:30:35.558Z,100.00
2022-08-09T00:33:05.469Z,100.00
2022-08-09T00:35:43.237Z,100.00
2022-08-09T00:40:54.722Z,100.00
2022-08-09T00:44:13.140Z,100.00
2022-08-09T00:46:55.579Z,100.00
2022-08-09T00:49:07.530Z,100.00
2022-08-09T00:51:42.694Z,100.00
2022-08-09T00:54:31.260Z,100.00
2022-08-09T00:57:08.811Z,100.00
2022-08-09T00:59:46.594Z,100.00
2022-08-09T01:02:26.805Z,100.00
2022-08-09T01:05:14.009Z,100.00
2022-08-09T01:07:59.707Z,100.00
2022-08-09T01:10:39.269Z,100.00
2022-08-09T01:13:22.123Z,100.00
2022-08-09T01:15:55.438Z,100.00
2022-08-09T01:18:32.202Z,100.00
2022-08-09T01:21:24.783Z,100.00
2022-08-09T01:24:05.035Z,100.00
2022-08-09T01:26:59.375Z,100.00
2022-08-09T01:29:40.938Z,100.00
2022-08-09T01:32:34.069Z,100.00
2022-08-09T01:35:28.213Z,100.00
2022-08-09T01:38:10.473Z,100.00
2022-08-09T01:41:05.024Z,100.00
2022-08-09T01:43:50.657Z,100.00
2022-08-09T01:46:27.141Z,100.00
2022-08-09T01:49:09.468Z,100.00
2022-08-09T01:51:53.527Z,100.00
2022-08-09T01:54:30.251Z,100.00
2022-08-09T01:57:10.059Z,100.00
2022-08-09T01:59:51.580Z,100.00
2022-08-09T02:02:31.035Z,100.00
2022-08-09T02:05:15.267Z,100.00
2022-08-09T02:08:40.464Z,100.00
2022-08-09T02:10:51.358Z,100.00
2022-08-09T02:13:37.613Z,100.00
2022-08-09T02:16:13.681Z,100.00
2022-08-09T02:18:47.658Z,100.00
2022-08-09T02:21:22.677Z,100.00
2022-08-09T02:23:57.520Z,100.00
2022-08-09T02:26:29.573Z,100.00
2022-08-09T02:29:04.489Z,100.00
2022-08-09T02:31:42.726Z,100.00
2022-08-09T02:34:25.756Z,100.00
2022-08-09T02:37:16.382Z,100.00
2022-08-09T02:40:01.325Z,100.00
2022-08-09T02:42:36.741Z,100.00
2022-08-09T02:45:12.127Z,100.00
2022-08-09T02:47:57.584Z,100.00
2022-08-09T02:50:38.205Z,100.00
2022-08-09T02:53:17.271Z,100.00
2022-08-09T02:56:01.040Z,100.00
2022-08-09T02:58:37.479Z,100.00
2022-08-09T03:01:10.970Z,100.00
2022-08-09T03:04:17.563Z,100.00
2022-08-09T03:06:36.195Z,100.00
2022-08-09T03:09:07.878Z,100.00
2022-08-09T03:12:09.906Z,100.00
2022-08-09T03:14:31.765Z,100.00
2022-08-09T03:17:05.516Z,100.00
2022-08-09T03:19:58.169Z,100.00
2022-08-09T03:22:31.528Z,100.00
2022-08-09T03:25:06.211Z,100.00
2022-08-09T03:27:55.365Z,100.00
2022-08-09T03:30:33.220Z,100.00
2022-08-09T03:33:18.531Z,100.00
2022-08-09T03:36:15.865Z,100.00
2022-08-09T03:38:44.915Z,100.00
2022-08-09T03:41:18.446Z,100.00
2022-08-09T03:44:03.624Z,100.00
2022-08-09T03:46:51.894Z,100.00
2022-08-09T03:49:23.966Z,100.00
2022-08-09T03:52:03.485Z,100.00
2022-08-09T03:54:38.845Z,100.00
2022-08-09T03:57:20.304Z,100.00
2022-08-09T03:59:55.432Z,100.00
2022-08-09T04:02:28.989Z,100.00
2022-08-09T04:05:06.574Z,100.00
2022-08-09T04:07:47.163Z,100.00
2022-08-09T04:10:28.526Z,100.00
2022-08-09T04:13:04.126Z,100.00
2022-08-09T04:15:52.121Z,100.00
2022-08-09T04:18:25.050Z,100.00
2022-08-09T04:20:55.056Z,100.00
2022-08-09T04:23:26.068Z,100.00
2022-08-09T04:25:56.618Z,100.00
2022-08-09T04:28:34.099Z,100.00
2022-08-09T04:31:10.123Z,100.00
2022-08-09T04:33:47.704Z,100.00
2022-08-09T04:36:26.184Z,100.00
2022-08-09T04:38:59.752Z,100.00
2022-08-09T04:41:32.131Z,100.00
2022-08-09T04:44:09.637Z,100.00
2022-08-09T04:46:58.454Z,100.00
2022-08-09T04:49:53.631Z,100.00
2022-08-09T04:52:27.752Z,100.00
2022-08-09T04:55:02.406Z,100.00
2022-08-09T04:57:54.387Z,100.00
2022-08-09T05:00:24.075Z,100.00
2022-08-09T05:02:54.188Z,100.00
2022-08-09T05:05:32.263Z,100.00
2022-08-09T05:08:15.130Z,100.00
2022-08-09T05:10:46.355Z,100.00
2022-08-09T05:13:15.870Z,100.00
2022-08-09T05:15:48.039Z,100.00
2022-08-09T05:18:37.643Z,100.00
2022-08-09T05:21:09.768Z,100.00
2022-08-09T05:23:54.698Z,100.00
2022-08-09T05:26:36.126Z,100.00
2022-08-09T05:29:17.812Z,100.00
2022-08-09T05:31:57.256Z,100.00
2022-08-09T05:34:31.115Z,100.00
2022-08-09T05:37:06.694Z,100.00
2022-08-09T05:39:42.884Z,100.00
2022-08-09T05:42:20.634Z,100.00
2022-08-09T05:44:55.493Z,100.00
2022-08-09T05:47:30.205Z,100.00
2022-08-09T05:50:25.968Z,100.00
2022-08-09T05:52:54.858Z,100.00
2022-08-09T05:55:25.300Z,100.00
2022-08-09T05:57:58.509Z,100.00
2022-08-09T06:00:30.296Z,100.00
2022-08-09T06:03:02.776Z,100.00
2022-08-09T06:05:58.217Z,100.00
2022-08-09T06:08:25.773Z,100.00
2022-08-09T06:10:58.328Z,100.00
2022-08-09T06:13:33.641Z,100.00
2022-08-09T06:16:05.503Z,100.00
2022-08-09T06:18:36.489Z,100.00
2022-08-09T06:21:08.095Z,100.00
2022-08-09T06:23:55.259Z,100.00
2022-08-09T06:26:28.898Z,100.00
2022-08-09T06:29:04.984Z,100.00
2022-08-09T06:31:39.748Z,100.00
2022-08-09T06:34:26.067Z,100.00
2022-08-09T06:37:00.150Z,100.00
2022-08-09T06:39:48.524Z,100.00
2022-08-09T06:42:24.658Z,100.00
2022-08-09T06:45:00.495Z,100.00
2022-08-09T06:47:57.975Z,100.00
2022-08-09T06:50:31.922Z,100.00
2022-08-09T06:53:01.815Z,100.00
2022-08-09T06:55:33.202Z,100.00
2022-08-09T06:58:04.678Z,100.00
2022-08-09T07:00:54.166Z,100.00
2022-08-09T07:03:29.013Z,100.00
2022-08-09T07:06:04.209Z,100.00
2022-08-09T07:08:37.415Z,100.00
2022-08-09T07:11:12.738Z,100.00
2022-08-09T07:14:04.830Z,100.00
2022-08-09T07:16:44.063Z,100.00
2022-08-09T07:19:23.374Z,100.00
2022-08-09T07:21:57.783Z,100.00
2022-08-09T07:24:40.551Z,100.00
2022-08-09T07:27:33.651Z,100.00
2022-08-09T07:30:05.749Z,100.00
2022-08-09T07:32:38.132Z,100.00
2022-08-09T07:35:14.806Z,100.00
2022-08-09T07:37:47.921Z,100.00
2022-08-09T07:40:27.033Z,100.00
2022-08-09T07:43:04.136Z,100.00
2022-08-09T07:45:44.321Z,100.00
2022-08-09T07:48:22.440Z,100.00
2022-08-09T07:51:03.011Z,100.00
2022-08-09T07:54:06.921Z,100.00
2022-08-09T07:56:30.816Z,100.00
2022-08-09T07:59:01.059Z,100.00
2022-08-09T08:01:32.993Z,100.00
2022-08-09T08:04:10.680Z,100.00
2022-08-09T08:06:55.935Z,100.00
2022-08-09T08:09:38.697Z,100.00
2022-08-09T08:12:27.682Z,100.00
2022-08-09T08:14:59.786Z,100.00
2022-08-09T08:17:52.376Z,100.00
2022-08-09T08:20:30.362Z,100.00
2022-08-09T08:23:06.918Z,100.00
2022-08-09T08:25:50.135Z,100.00
2022-08-09T08:28:25.911Z,100.00
2022-08-09T08:31:10.540Z,100.00
2022-08-09T08:33:53.514Z,100.00
2022-08-09T08:36:28.963Z,100.00
2022-08-09T08:39:00.311Z,100.00
2022-08-09T08:41:50.653Z,100.00
2022-08-09T08:44:28.723Z,97.80
2022-08-09T08:47:04.775Z,96.90
2022-08-09T08:49:47.901Z,96.46
2022-08-09T08:55:23.035Z,90.21
2022-08-09T08:57:56.851Z,88.41
2022-08-09T09:00:30.120Z,86.32
2022-08-09T09:03:08.675Z,85.71
2022-08-09T09:05:59.794Z,81.97
2022-08-09T09:08:40.751Z,77.95
2022-08-09T09:11:13.692Z,71.53
2022-08-09T09:13:57.959Z,67.91
2022-08-09T09:16:33.672Z,66.97
2022-08-09T09:19:22.499Z,66.09
2022-08-09T09:22:11.388Z,66.41
2022-08-09T09:24:46.267Z,66.50
2022-08-09T09:28:04.074Z,67.88
2022-08-09T09:30:34.553Z,62.26
2022-08-09T09:33:16.948Z,62.96
2022-08-09T09:36:02.045Z,63.83
2022-08-09T09:38:47.326Z,61.31
2022-08-09T09:41:49.358Z,59.41
2022-08-09T09:44:31.691Z,61.84
2022-08-09T09:47:11.033Z,58.88
2022-08-09T09:50:06.895Z,55.63
2022-08-09T09:52:36.622Z,55.40
2022-08-09T09:55:28.469Z,57.07
2022-08-09T09:58:16.878Z,56.26
2022-08-09T10:00:53.788Z,52.87
2022-08-09T10:03:44.807Z,53.46
2022-08-09T10:06:32.042Z,51.92
2022-08-09T10:09:12.042Z,51.53
2022-08-09T10:12:12.060Z,53.17
2022-08-09T10:14:48.050Z,51.30
2022-08-09T10:17:39.004Z,51.14
2022-08-09T10:20:33.062Z,45.81
2022-08-09T10:23:22.629Z,47.82
2022-08-09T10:26:08.126Z,49.29
2022-08-09T10:28:45.539Z,49.68
2022-08-09T10:34:32.875Z,46.93
2022-08-09T10:37:03.663Z,46.39
2022-08-09T10:39:49.292Z,47.53
2022-08-09T10:42:19.440Z,47.44
2022-08-09T10:44:55.142Z,45.73
2022-08-09T10:48:16.871Z,45.64
2022-08-09T10:51:09.266Z,46.04
2022-08-09T10:53:54.937Z,41.88
2022-08-09T10:56:28.398Z,45.23
2022-08-09T10:59:03.389Z,45.38
2022-08-09T11:03:18.762Z,46.05
2022-08-09T11:04:35.374Z,44.72
2022-08-09T11:07:58.267Z,46.02
2022-08-09T11:11:00.579Z,45.15
2022-08-09T11:13:50.826Z,43.50
2022-08-09T11:16:39.336Z,43.54
2022-08-09T11:19:11.489Z,42.52
2022-08-09T11:22:10.698Z,43.70
2022-08-09T11:25:10.361Z,39.96
2022-08-09T11:28:03.580Z,40.74
2022-08-09T11:30:38.100Z,40.84
2022-08-09T11:33:27.845Z,41.22
2022-08-09T11:36:00.965Z,40.94
2022-08-09T11:38:35.358Z,40.37
2022-08-09T11:41:38.596Z,40.48
2022-08-09T11:44:13.508Z,40.54
2022-08-09T11:46:57.003Z,38.52
2022-08-09T11:50:53.893Z,40.13
2022-08-09T11:54:01.123Z,40.79
2022-08-09T11:56:42.652Z,40.14
2022-08-09T11:59:33.612Z,40.01
2022-08-09T12:02:37.350Z,39.90
2022-08-09T12:04:58.163Z,39.56
2022-08-09T12:07:41.353Z,39.20
2022-08-09T12:10:14.407Z,39.89
2022-08-09T12:14:11.078Z,41.04
2022-08-09T12:16:06.221Z,38.94
2022-08-09T12:18:56.300Z,38.34
2022-08-09T12:21:38.569Z,36.78
2022-08-09T12:24:12.580Z,37.28
2022-08-09T12:28:58.297Z,36.19
2022-08-09T12:30:04.319Z,39.68
2022-08-09T12:32:48.704Z,36.21
2022-08-09T12:35:21.573Z,38.24
2022-08-09T12:37:53.890Z,38.58
2022-08-09T12:40:27.251Z,37.16
2022-08-09T12:42:58.138Z,36.18
2022-08-09T12:45:33.642Z,37.23
2022-08-09T12:48:07.988Z,37.61
2022-08-09T12:50:52.151Z,36.98
2022-08-09T12:53:35.280Z,38.57
2022-08-09T12:56:43.788Z,35.81
2022-08-09T12:59:57.974Z,37.43
2022-08-09T13:02:24.476Z,36.72
2022-08-09T13:05:02.948Z,38.03
2022-08-09T13:07:50.188Z,37.02
2022-08-09T13:10:21.028Z,38.23
2022-08-09T13:13:10.959Z,37.83
2022-08-09T13:15:57.157Z,36.18
2022-08-09T13:18:30.466Z,36.78
2022-08-09T13:22:33.073Z,38.73
2022-08-09T13:24:17.552Z,39.03
2022-08-09T13:26:46.106Z,37.19
2022-08-09T13:29:28.631Z,34.36
2022-08-09T13:32:25.499Z,37.04
2022-08-09T13:34:58.732Z,36.74
2022-08-09T13:37:51.697Z,37.34
2022-08-09T13:41:55.140Z,37.14
2022-08-09T13:43:11.578Z,36.99
2022-08-09T13:46:42.598Z,36.22
2022-08-09T13:48:35.184Z,34.87
2022-08-09T13:51:08.954Z,35.90
2022-08-09T13:53:43.157Z,35.22
2022-08-09T13:56:14.345Z,36.66
2022-08-09T13:58:47.984Z,36.07
2022-08-09T14:01:56.309Z,35.26
2022-08-09T14:04:11.593Z,34.19
2022-08-09T14:06:43.821Z,34.63
2022-08-09T14:09:16.419Z,34.50
2022-08-09T14:11:47.783Z,34.26
2022-08-09T14:14:26.295Z,33.81
2022-08-09T14:16:57.319Z,34.67
2022-08-09T14:19:30.320Z,35.75
2022-08-09T14:22:05.925Z,34.29
2022-08-09T14:24:35.578Z,33.61
2022-08-09T14:27:19.850Z,34.19
2022-08-09T14:30:34.621Z,34.24
2022-08-09T14:32:40.251Z,34.25
2022-08-09T14:35:12.929Z,32.97
2022-08-09T14:38:02.172Z,32.49
2022-08-09T14:40:38.965Z,33.19
2022-08-09T14:43:22.950Z,33.49
2022-08-09T14:46:54.155Z,34.73
2022-08-09T14:48:42.190Z,33.55
2022-08-09T14:51:15.357Z,33.35
2022-08-09T14:53:52.254Z,33.83
2022-08-09T14:56:22.263Z,33.05
2022-08-09T14:58:56.578Z,32.97
2022-08-09T15:01:27.638Z,32.42
2022-08-09T15:03:57.358Z,33.28
2022-08-09T15:06:28.743Z,31.91
2022-08-09T15:09:01.059Z,31.25
2022-08-09T15:11:30.675Z,30.95
2022-08-09T15:14:04.862Z,30.88
2022-08-09T15:16:43.122Z,31.13
2022-08-09T15:19:17.940Z,30.43
2022-08-09T15:21:55.998Z,31.33
2022-08-09T15:24:32.366Z,31.38
2022-08-09T15:27:01.985Z,31.67
2022-08-09T15:30:58.561Z,33.24
2022-08-09T15:32:28.862Z,33.07
2022-08-09T15:35:01.120Z,33.09
2022-08-09T15:37:56.299Z,33.66
2022-08-09T15:40:31.767Z,34.00
2022-08-09T15:43:03.239Z,34.16
2022-08-09T15:45:51.661Z,33.91
2022-08-09T15:48:28.350Z,34.62
2022-08-09T15:50:59.422Z,34.06
2022-08-09T15:54:04.527Z,34.82
2022-08-09T15:56:21.348Z,35.44
2022-08-09T15:59:00.021Z,35.22
2022-08-09T16:01:35.455Z,35.71
2022-08-09T16:04:06.097Z,35.54
2022-08-09T16:06:44.517Z,35.58
2022-08-09T16:09:32.577Z,37.33
2022-08-09T16:12:12.072Z,37.36
2022-08-09T16:14:45.959Z,36.45
2022-08-09T16:17:17.216Z,36.97
2022-08-09T16:19:49.250Z,37.28
2022-08-09T16:22:48.995Z,39.08
2022-08-09T16:25:36.763Z,38.93
2022-08-09T16:28:12.049Z,38.97
2022-08-09T16:30:44.396Z,39.87
2022-08-09T16:33:16.001Z,39.08
2022-08-09T16:35:56.634Z,39.47
2022-08-09T16:38:28.048Z,39.64
2022-08-09T16:40:59.339Z,40.38
2022-08-09T16:43:40.639Z,40.43
2022-08-09T16:46:12.352Z,41.32
2022-08-09T16:48:59.272Z,41.69
2022-08-09T16:51:31.603Z,41.58
2022-08-09T16:54:27.533Z,41.78
2022-08-09T16:56:54.457Z,41.55
2022-08-09T16:59:27.399Z,41.91
2022-08-09T17:02:04.385Z,41.98
2022-08-09T17:04:35.101Z,42.44
2022-08-09T17:08:45.393Z,43.21
2022-08-09T17:10:01.791Z,43.49
2022-08-09T17:12:35.561Z,43.29
2022-08-09T17:15:31.334Z,44.15
2022-08-09T17:18:00.723Z,44.41
2022-08-09T17:20:37.701Z,44.05
2022-08-09T17:23:14.798Z,44.39
2022-08-09T17:25:52.999Z,44.63
2022-08-09T17:28:22.965Z,45.15
2022-08-09T17:30:54.347Z,45.27
2022-08-09T17:33:24.003Z,45.51
2022-08-09T17:35:53.485Z,46.18
2022-08-09T17:38:34.070Z,47.33
2022-08-09T17:41:07.934Z,47.38
2022-08-09T17:43:37.984Z,48.74
2022-08-09T17:46:09.859Z,48.82
2022-08-09T17:48:46.588Z,49.33
2022-08-09T17:51:22.596Z,49.04
2022-08-09T17:53:55.775Z,48.82
2022-08-09T17:56:28.778Z,48.97
2022-08-09T17:59:01.113Z,49.33
2022-08-09T18:02:03.295Z,49.54
2022-08-09T18:04:23.545Z,50.31
2022-08-09T18:06:54.881Z,50.74
2022-08-09T18:09:40.247Z,51.06
2022-08-09T18:12:17.410Z,52.03
2022-08-09T18:14:54.690Z,52.41
2022-08-09T18:18:03.730Z,52.93
2022-08-09T18:20:56.019Z,54.41
2022-08-09T18:23:07.993Z,54.12
2022-08-09T18:25:57.991Z,55.05
2022-08-09T18:30:42.021Z,55.97
2022-08-09T18:31:32.245Z,57.22
2022-08-09T18:34:10.314Z,58.23
2022-08-09T18:36:39.539Z,59.73
2022-08-09T18:39:15.951Z,60.68
2022-08-09T18:41:53.130Z,61.48
2022-08-09T18:44:25.752Z,61.73
2022-08-09T18:47:08.201Z,63.18
2022-08-09T18:49:46.844Z,64.32
2022-08-09T18:52:24.951Z,65.45
2022-08-09T18:54:59.614Z,66.61
2022-08-09T18:57:42.880Z,66.53
2022-08-09T19:00:16.820Z,67.61
2022-08-09T19:02:51.163Z,68.26
2022-08-09T19:05:49.309Z,69.38
2022-08-09T19:08:19.698Z,70.60
2022-08-09T19:10:50.690Z,72.81
2022-08-09T19:13:23.432Z,73.85
2022-08-09T19:16:09.332Z,75.91
2022-08-09T19:18:43.924Z,79.10
2022-08-09T19:21:16.424Z,83.25
2022-08-09T19:24:36.231Z,86.20
2022-08-09T19:26:38.385Z,91.07
2022-08-09T19:29:18.005Z,94.45
2022-08-09T19:31:51.647Z,98.10
2022-08-09T19:34:24.675Z,100.00
2022-08-09T19:36:58.457Z,100.00
2022-08-09T19:40:02.650Z,100.00
2022-08-09T19:42:28.414Z,100.00
2022-08-09T19:44:57.692Z,100.00
2022-08-09T19:47:27.250Z,100.00
2022-08-09T19:50:07.061Z,100.00
2022-08-09T19:52:51.941Z,100.00
2022-08-09T19:55:30.776Z,100.00
2022-08-09T19:58:15.959Z,100.00
2022-08-09T20:00:47.674Z,100.00
2022-08-09T20:04:26.514Z,100.00
2022-08-09T20:06:22.309Z,100.00
2022-08-09T20:08:56.570Z,100.00
2022-08-09T20:11:26.941Z,100.00
2022-08-09T20:13:56.759Z,100.00
2022-08-09T20:16:38.239Z,100.00
2022-08-09T20:19:49.652Z,100.00
2022-08-09T20:22:04.769Z,100.00
2022-08-09T20:24:40.960Z,100.00
2022-08-09T20:27:11.554Z,100.00
2022-08-09T20:29:44.528Z,100.00
2022-08-09T20:32:29.399Z,100.00
2022-08-09T20:35:01.461Z,100.00
2022-08-09T20:37:37.310Z,100.00
2022-08-09T20:40:27.918Z,100.00
2022-08-09T20:42:59.514Z,100.00
2022-08-09T20:45:57.767Z,100.00
2022-08-09T20:48:21.374Z,100.00
2022-08-09T20:50:55.632Z,100.00
2022-08-09T20:53:36.632Z,100.00
2022-08-09T20:56:20.114Z,100.00
2022-08-09T20:58:58.645Z,100.00
2022-08-09T21:01:34.444Z,100.00
2022-08-09T21:05:52.882Z,100.00
2022-08-09T21:07:14.421Z,100.00
2022-08-09T21:09:56.584Z,100.00
2022-08-09T21:12:32.392Z,100.00
2022-08-09T21:15:03.725Z,100.00
2022-08-09T21:18:11.970Z,100.00
2022-08-09T21:20:26.332Z,100.00
2022-08-09T21:22:56.178Z,100.00
2022-08-09T21:25:56.154Z,100.00
2022-08-09T21:28:36.206Z,100.00
2022-08-09T21:31:13.576Z,100.00
2022-08-09T21:33:51.231Z,100.00
2022-08-09T21:36:30.508Z,100.00
2022-08-09T21:39:00.723Z,100.00
2022-08-09T21:42:04.927Z,100.00
2022-08-09T21:44:32.879Z,100.00
2022-08-09T21:47:09.013Z,100.00
2022-08-09T21:49:42.905Z,100.00
2022-08-09T21:52:17.612Z,100.00
2022-08-09T21:54:50.868Z,100.00
2022-08-09T21:57:39.190Z,100.00
2022-08-09T22:00:26.742Z,100.00
2022-08-09T22:03:06.671Z,100.00
2022-08-09T22:05:42.055Z,100.00
2022-08-09T22:08:15.198Z,100.00
2022-08-09T22:11:49.532Z,100.00
2022-08-09T22:13:37.090Z,100.00
2022-08-09T22:16:10.008Z,100.00
2022-08-09T22:18:53.101Z,100.00
2022-08-09T22:21:27.316Z,100.00
2022-08-09T22:24:16.596Z,100.00
2022-08-09T22:26:51.007Z,100.00
2022-08-09T22:29:28.443Z,100.00
2022-08-09T22:32:06.927Z,100.00
2022-08-09T22:34:59.354Z,100.00
2022-08-09T22:37:40.261Z,100.00
2022-08-09T22:40:18.300Z,100.00
2022-08-09T22:42:50.169Z,100.00
2022-08-09T22:48:15.792Z,100.00
2022-08-09T22:48:34.971Z,100.00
2022-08-09T22:51:10.908Z,100.00
2022-08-09T22:54:02.007Z,100.00
2022-08-09T22:56:33.981Z,100.00
2022-08-09T22:59:57.273Z,100.00
2022-08-09T23:01:56.230Z,100.00
2022-08-09T23:04:27.973Z,100.00
2022-08-09T23:08:21.227Z,100.00
2022-08-09T23:10:10.361Z,100.00
2022-08-09T23:12:40.045Z,100.00
2022-08-09T23:15:11.089Z,100.00
2022-08-09T23:17:40.648Z,100.00
2022-08-09T23:20:12.710Z,100.00
2022-08-09T23:22:42.302Z,100.00
2022-08-09T23:25:12.204Z,100.00
2022-08-09T23:28:14.483Z,100.00
2022-08-09T23:30:31.538Z,100.00
2022-08-09T23:33:01.182Z,100.00
2022-08-09T23:35:32.100Z,100.00
2022-08-09T23:38:22.862Z,100.00
2022-08-09T23:40:52.429Z,100.00
2022-08-09T23:43:22.492Z,100.00
2022-08-09T23:45:52.037Z,100.00
2022-08-09T23:48:21.636Z,100.00
2022-08-09T23:50:52.521Z,100.00
2022-08-09T23:53:22.074Z,100.00
2022-08-09T23:55:55.368Z,100.00
2022-08-09T23:58:29.711Z,100.00
